sensor_id;sensor_type;location;lat;lon;timestamp;temperature;humidity
22558;DHT22;11445;53.816;8.902;2023-07-13T00:01:30;17.10;99.90
22558;DHT22;11445;53.816;8.902;2023-07-13T00:03:57;17.10;99.90
22558;DHT22;11445;53.816;8.902;2023-07-13T00:06:24;17.10;99.90
22558;DHT22;11445;53.816;8.902;2023-07-13T00:08:57;17.10;99.90
22558;DHT22;11445;53.816;8.902;2023-07-13T00:11:23;17.00;99.90
22558;DHT22;11445;53.816;8.902;2023-07-13T00:13:50;17.00;99.90
22558;DHT22;11445;53.816;8.902;2023-07-13T00:16:18;17.00;99.90
22558;DHT22;11445;53.816;8.902;2023-07-13T00:18:45;16.90;99.90
22558;DHT22;11445;53.816;8.902;2023-07-13T00:21:12;17.00;99.90
22558;DHT22;11445;53.816;8.902;2023-07-13T00:23:42;17.00;99.90
22558;DHT22;11445;53.816;8.902;2023-07-13T00:26:11;16.90;99.90
22558;DHT22;11445;53.816;8.902;2023-07-13T00:28:39;16.90;99.90
22558;DHT22;11445;53.816;8.902;2023-07-13T00:31:07;16.80;99.90
22558;DHT22;11445;53.816;8.902;2023-07-13T00:33:34;16.80;99.90
22558;DHT22;11445;53.816;8.902;2023-07-13T00:36:03;16.80;99.90
22558;DHT22;11445;53.816;8.902;2023-07-13T00:38:30;16.80;99.90
22558;DHT22;11445;53.816;8.902;2023-07-13T00:40:57;16.80;99.90
22558;DHT22;11445;53.816;8.902;2023-07-13T00:43:27;16.80;99.90
22558;DHT22;11445;53.816;8.902;2023-07-13T00:46:13;16.70;99.90
22558;DHT22;11445;53.816;8.902;2023-07-13T00:48:41;16.70;99.90
22558;DHT22;11445;53.816;8.902;2023-07-13T00:51:10;16.70;99.90
22558;DHT22;11445;53.816;8.902;2023-07-13T00:53:38;16.60;99.90
22558;DHT22;11445;53.816;8.902;2023-07-13T00:56:05;16.60;99.90
22558;DHT22;11445;53.816;8.902;2023-07-13T00:58:35;16.60;99.90
22558;DHT22;11445;53.816;8.902;2023-07-13T01:01:02;16.50;99.90
22558;DHT22;11445;53.816;8.902;2023-07-13T01:03:29;16.60;99.90
22558;DHT22;11445;53.816;8.902;2023-07-13T01:05:56;16.50;99.90
22558;DHT22;11445;53.816;8.902;2023-07-13T01:08:23;16.50;99.90
22558;DHT22;11445;53.816;8.902;2023-07-13T01:10:54;16.40;99.90
22558;DHT22;11445;53.816;8.902;2023-07-13T01:13:21;16.40;99.90
22558;DHT22;11445;53.816;8.902;2023-07-13T01:15:51;16.40;99.90
22558;DHT22;11445;53.816;8.902;2023-07-13T01:18:20;16.40;99.90
22558;DHT22;11445;53.816;8.902;2023-07-13T01:20:53;16.40;99.90
22558;DHT22;11445;53.816;8.902;2023-07-13T01:23:21;16.40;99.90
22558;DHT22;11445;53.816;8.902;2023-07-13T01:25:48;16.40;99.90
22558;DHT22;11445;53.816;8.902;2023-07-13T01:28:16;16.40;99.90
22558;DHT22;11445;53.816;8.902;2023-07-13T01:30:44;16.40;99.90
22558;DHT22;11445;53.816;8.902;2023-07-13T01:33:12;16.30;99.90
22558;DHT22;11445;53.816;8.902;2023-07-13T01:35:40;16.40;99.90
22558;DHT22;11445;53.816;8.902;2023-07-13T01:38:08;16.40;99.90
22558;DHT22;11445;53.816;8.902;2023-07-13T01:40:37;16.30;99.90
22558;DHT22;11445;53.816;8.902;2023-07-13T01:43:04;16.30;99.90
22558;DHT22;11445;53.816;8.902;2023-07-13T01:45:32;16.30;99.90
22558;DHT22;11445;53.816;8.902;2023-07-13T01:47:59;16.30;99.90
22558;DHT22;11445;53.816;8.902;2023-07-13T01:50:25;16.30;99.90
22558;DHT22;11445;53.816;8.902;2023-07-13T01:52:52;16.30;99.90
22558;DHT22;11445;53.816;8.902;2023-07-13T01:55:21;16.20;99.90
22558;DHT22;11445;53.816;8.902;2023-07-13T01:57:48;16.20;99.90
22558;DHT22;11445;53.816;8.902;2023-07-13T02:00:16;16.20;99.90
22558;DHT22;11445;53.816;8.902;2023-07-13T02:02:43;16.20;99.90
22558;DHT22;11445;53.816;8.902;2023-07-13T02:05:09;16.20;99.90
22558;DHT22;11445;53.816;8.902;2023-07-13T02:07:37;16.20;99.90
22558;DHT22;11445;53.816;8.902;2023-07-13T02:10:04;16.20;99.90
22558;DHT22;11445;53.816;8.902;2023-07-13T02:12:33;16.20;99.90
22558;DHT22;11445;53.816;8.902;2023-07-13T02:15:00;16.10;99.90
22558;DHT22;11445;53.816;8.902;2023-07-13T02:17:27;16.20;99.90
22558;DHT22;11445;53.816;8.902;2023-07-13T02:19:53;16.10;99.90
22558;DHT22;11445;53.816;8.902;2023-07-13T02:22:21;16.10;99.90
22558;DHT22;11445;53.816;8.902;2023-07-13T02:24:48;16.10;99.90
22558;DHT22;11445;53.816;8.902;2023-07-13T02:27:15;16.10;99.90
22558;DHT22;11445;53.816;8.902;2023-07-13T02:29:43;16.10;99.90
22558;DHT22;11445;53.816;8.902;2023-07-13T02:32:10;16.10;99.90
22558;DHT22;11445;53.816;8.902;2023-07-13T02:34:37;16.10;99.90
22558;DHT22;11445;53.816;8.902;2023-07-13T02:37:04;16.10;99.90
22558;DHT22;11445;53.816;8.902;2023-07-13T02:39:30;16.10;99.90
22558;DHT22;11445;53.816;8.902;2023-07-13T02:41:58;16.10;99.90
22558;DHT22;11445;53.816;8.902;2023-07-13T02:44:25;16.10;99.90
22558;DHT22;11445;53.816;8.902;2023-07-13T02:46:53;16.00;99.90
22558;DHT22;11445;53.816;8.902;2023-07-13T02:49:20;16.00;99.90
22558;DHT22;11445;53.816;8.902;2023-07-13T02:51:47;16.00;99.90
22558;DHT22;11445;53.816;8.902;2023-07-13T02:54:14;16.00;99.90
22558;DHT22;11445;53.816;8.902;2023-07-13T02:56:41;16.00;99.90
22558;DHT22;11445;53.816;8.902;2023-07-13T02:59:09;16.00;99.90
22558;DHT22;11445;53.816;8.902;2023-07-13T03:01:36;15.90;99.90
22558;DHT22;11445;53.816;8.902;2023-07-13T03:04:04;15.90;99.90
22558;DHT22;11445;53.816;8.902;2023-07-13T03:06:32;15.90;99.90
22558;DHT22;11445;53.816;8.902;2023-07-13T03:08:58;15.90;99.90
22558;DHT22;11445;53.816;8.902;2023-07-13T03:11:26;15.90;99.90
22558;DHT22;11445;53.816;8.902;2023-07-13T03:13:53;15.80;99.90
22558;DHT22;11445;53.816;8.902;2023-07-13T03:16:20;15.80;99.90
22558;DHT22;11445;53.816;8.902;2023-07-13T03:18:48;15.80;99.90
22558;DHT22;11445;53.816;8.902;2023-07-13T03:21:16;15.70;99.90
22558;DHT22;11445;53.816;8.902;2023-07-13T03:23:43;15.70;99.90
22558;DHT22;11445;53.816;8.902;2023-07-13T03:26:12;15.70;99.90
22558;DHT22;11445;53.816;8.902;2023-07-13T03:28:40;15.70;99.90
22558;DHT22;11445;53.816;8.902;2023-07-13T03:31:11;15.60;99.90
22558;DHT22;11445;53.816;8.902;2023-07-13T03:33:38;15.60;99.90
22558;DHT22;11445;53.816;8.902;2023-07-13T03:36:06;15.60;99.90
22558;DHT22;11445;53.816;8.902;2023-07-13T03:38:35;15.60;99.90
22558;DHT22;11445;53.816;8.902;2023-07-13T03:41:02;15.60;99.90
22558;DHT22;11445;53.816;8.902;2023-07-13T03:43:28;15.60;99.90
22558;DHT22;11445;53.816;8.902;2023-07-13T03:45:55;15.60;99.90
22558;DHT22;11445;53.816;8.902;2023-07-13T03:48:22;15.60;99.90
22558;DHT22;11445;53.816;8.902;2023-07-13T03:50:49;15.60;99.90
22558;DHT22;11445;53.816;8.902;2023-07-13T03:53:16;15.70;99.90
22558;DHT22;11445;53.816;8.902;2023-07-13T03:55:45;15.70;99.90
22558;DHT22;11445;53.816;8.902;2023-07-13T03:58:29;15.70;99.90
22558;DHT22;11445;53.816;8.902;2023-07-13T04:00:57;15.70;99.90
22558;DHT22;11445;53.816;8.902;2023-07-13T04:03:24;15.70;99.90
22558;DHT22;11445;53.816;8.902;2023-07-13T04:05:54;15.70;99.90
22558;DHT22;11445;53.816;8.902;2023-07-13T04:08:20;15.70;99.90
22558;DHT22;11445;53.816;8.902;2023-07-13T04:10:48;15.70;99.90
22558;DHT22;11445;53.816;8.902;2023-07-13T04:13:15;15.70;99.90
22558;DHT22;11445;53.816;8.902;2023-07-13T04:15:42;15.70;99.90
22558;DHT22;11445;53.816;8.902;2023-07-13T04:18:09;15.80;99.90
22558;DHT22;11445;53.816;8.902;2023-07-13T04:20:36;15.80;99.90
22558;DHT22;11445;53.816;8.902;2023-07-13T04:23:03;15.80;99.90
22558;DHT22;11445;53.816;8.902;2023-07-13T04:25:29;15.80;99.90
22558;DHT22;11445;53.816;8.902;2023-07-13T04:27:58;15.80;99.90
22558;DHT22;11445;53.816;8.902;2023-07-13T04:30:24;15.80;99.90
22558;DHT22;11445;53.816;8.902;2023-07-13T04:33:02;15.90;99.90
22558;DHT22;11445;53.816;8.902;2023-07-13T04:35:30;15.90;99.90
22558;DHT22;11445;53.816;8.902;2023-07-13T04:37:57;15.90;99.90
22558;DHT22;11445;53.816;8.902;2023-07-13T04:40:24;15.90;99.90
22558;DHT22;11445;53.816;8.902;2023-07-13T04:42:50;16.00;99.90
22558;DHT22;11445;53.816;8.902;2023-07-13T04:45:19;16.00;99.90
22558;DHT22;11445;53.816;8.902;2023-07-13T04:47:45;16.10;99.90
22558;DHT22;11445;53.816;8.902;2023-07-13T04:50:13;16.10;99.90
22558;DHT22;11445;53.816;8.902;2023-07-13T04:52:45;16.20;99.90
22558;DHT22;11445;53.816;8.902;2023-07-13T04:55:12;16.20;99.90
22558;DHT22;11445;53.816;8.902;2023-07-13T04:57:39;16.30;99.90
22558;DHT22;11445;53.816;8.902;2023-07-13T05:00:06;16.30;99.90
22558;DHT22;11445;53.816;8.902;2023-07-13T05:02:35;16.30;99.90
22558;DHT22;11445;53.816;8.902;2023-07-13T05:05:02;16.40;99.90
22558;DHT22;11445;53.816;8.902;2023-07-13T05:07:29;16.40;99.90
22558;DHT22;11445;53.816;8.902;2023-07-13T05:09:58;16.40;99.90
22558;DHT22;11445;53.816;8.902;2023-07-13T05:12:25;16.40;99.90
22558;DHT22;11445;53.816;8.902;2023-07-13T05:14:52;16.40;99.90
22558;DHT22;11445;53.816;8.902;2023-07-13T05:17:18;16.50;99.90
22558;DHT22;11445;53.816;8.902;2023-07-13T05:19:47;16.50;99.90
22558;DHT22;11445;53.816;8.902;2023-07-13T05:22:13;16.50;99.90
22558;DHT22;11445;53.816;8.902;2023-07-13T05:24:40;16.50;99.90
22558;DHT22;11445;53.816;8.902;2023-07-13T05:27:07;16.60;99.90
22558;DHT22;11445;53.816;8.902;2023-07-13T05:29:34;16.70;99.90
22558;DHT22;11445;53.816;8.902;2023-07-13T05:32:01;16.70;99.90
22558;DHT22;11445;53.816;8.902;2023-07-13T05:34:27;16.70;99.90
22558;DHT22;11445;53.816;8.902;2023-07-13T05:36:56;16.80;99.90
22558;DHT22;11445;53.816;8.902;2023-07-13T05:39:23;16.80;99.90
22558;DHT22;11445;53.816;8.902;2023-07-13T05:41:50;16.80;99.90
22558;DHT22;11445;53.816;8.902;2023-07-13T05:44:16;16.90;99.90
22558;DHT22;11445;53.816;8.902;2023-07-13T05:46:44;16.90;99.90
22558;DHT22;11445;53.816;8.902;2023-07-13T05:49:11;17.00;99.90
22558;DHT22;11445;53.816;8.902;2023-07-13T05:51:37;17.00;99.90
22558;DHT22;11445;53.816;8.902;2023-07-13T05:54:06;17.00;99.90
22558;DHT22;11445;53.816;8.902;2023-07-13T05:56:33;17.00;99.90
22558;DHT22;11445;53.816;8.902;2023-07-13T05:58:59;17.00;99.90
22558;DHT22;11445;53.816;8.902;2023-07-13T06:01:26;17.00;99.90
22558;DHT22;11445;53.816;8.902;2023-07-13T06:03:53;17.10;99.90
22558;DHT22;11445;53.816;8.902;2023-07-13T06:06:20;17.10;99.90
22558;DHT22;11445;53.816;8.902;2023-07-13T06:08:47;17.10;99.90
22558;DHT22;11445;53.816;8.902;2023-07-13T06:11:16;17.10;99.90
22558;DHT22;11445;53.816;8.902;2023-07-13T06:13:43;17.20;99.90
22558;DHT22;11445;53.816;8.902;2023-07-13T06:16:11;17.20;99.90
22558;DHT22;11445;53.816;8.902;2023-07-13T06:18:39;17.20;99.90
22558;DHT22;11445;53.816;8.902;2023-07-13T06:21:07;17.20;99.90
22558;DHT22;11445;53.816;8.902;2023-07-13T06:23:34;17.40;99.90
22558;DHT22;11445;53.816;8.902;2023-07-13T06:26:02;17.50;99.90
22558;DHT22;11445;53.816;8.902;2023-07-13T06:28:30;17.60;99.90
22558;DHT22;11445;53.816;8.902;2023-07-13T06:30:58;17.70;99.90
22558;DHT22;11445;53.816;8.902;2023-07-13T06:33:25;17.80;99.90
22558;DHT22;11445;53.816;8.902;2023-07-13T06:35:52;17.80;99.90
22558;DHT22;11445;53.816;8.902;2023-07-13T06:38:20;17.90;99.90
22558;DHT22;11445;53.816;8.902;2023-07-13T06:40:47;18.00;99.90
22558;DHT22;11445;53.816;8.902;2023-07-13T06:43:13;18.00;99.90
22558;DHT22;11445;53.816;8.902;2023-07-13T06:45:43;18.10;99.90
22558;DHT22;11445;53.816;8.902;2023-07-13T06:48:11;18.10;99.90
22558;DHT22;11445;53.816;8.902;2023-07-13T06:50:38;18.20;99.90
22558;DHT22;11445;53.816;8.902;2023-07-13T06:53:04;18.30;99.90
22558;DHT22;11445;53.816;8.902;2023-07-13T06:55:31;18.40;99.90
22558;DHT22;11445;53.816;8.902;2023-07-13T06:57:58;18.40;99.90
22558;DHT22;11445;53.816;8.902;2023-07-13T07:00:25;18.40;99.90
22558;DHT22;11445;53.816;8.902;2023-07-13T07:02:53;18.40;99.90
22558;DHT22;11445;53.816;8.902;2023-07-13T07:05:20;18.50;99.90
22558;DHT22;11445;53.816;8.902;2023-07-13T07:07:47;18.50;99.90
22558;DHT22;11445;53.816;8.902;2023-07-13T07:10:14;18.60;99.90
22558;DHT22;11445;53.816;8.902;2023-07-13T07:12:41;18.60;99.90
22558;DHT22;11445;53.816;8.902;2023-07-13T07:15:08;18.60;99.90
22558;DHT22;11445;53.816;8.902;2023-07-13T07:17:35;18.60;99.90
22558;DHT22;11445;53.816;8.902;2023-07-13T07:20:04;18.60;99.90
22558;DHT22;11445;53.816;8.902;2023-07-13T07:22:32;18.70;99.90
22558;DHT22;11445;53.816;8.902;2023-07-13T07:24:58;18.80;99.90
22558;DHT22;11445;53.816;8.902;2023-07-13T07:27:26;18.90;99.90
22558;DHT22;11445;53.816;8.902;2023-07-13T07:29:52;18.90;99.90
22558;DHT22;11445;53.816;8.902;2023-07-13T07:32:20;19.00;99.90
22558;DHT22;11445;53.816;8.902;2023-07-13T07:34:46;19.00;99.90
22558;DHT22;11445;53.816;8.902;2023-07-13T07:37:15;19.00;99.90
22558;DHT22;11445;53.816;8.902;2023-07-13T07:39:43;19.00;99.90
22558;DHT22;11445;53.816;8.902;2023-07-13T07:42:10;19.10;99.90
22558;DHT22;11445;53.816;8.902;2023-07-13T07:44:39;19.20;99.90
22558;DHT22;11445;53.816;8.902;2023-07-13T07:47:06;19.30;99.90
22558;DHT22;11445;53.816;8.902;2023-07-13T07:49:33;19.40;99.90
22558;DHT22;11445;53.816;8.902;2023-07-13T07:52:00;19.40;99.90
22558;DHT22;11445;53.816;8.902;2023-07-13T07:54:28;19.50;99.90
22558;DHT22;11445;53.816;8.902;2023-07-13T07:56:55;19.40;99.90
22558;DHT22;11445;53.816;8.902;2023-07-13T07:59:22;19.50;99.90
22558;DHT22;11445;53.816;8.902;2023-07-13T08:01:49;19.50;99.90
22558;DHT22;11445;53.816;8.902;2023-07-13T08:04:16;19.50;99.90
22558;DHT22;11445;53.816;8.902;2023-07-13T08:06:42;19.50;99.90
22558;DHT22;11445;53.816;8.902;2023-07-13T08:09:09;19.50;99.90
22558;DHT22;11445;53.816;8.902;2023-07-13T08:11:37;19.50;99.90
22558;DHT22;11445;53.816;8.902;2023-07-13T08:14:04;19.50;99.90
22558;DHT22;11445;53.816;8.902;2023-07-13T08:16:31;19.50;99.90
22558;DHT22;11445;53.816;8.902;2023-07-13T08:18:58;19.50;99.90
22558;DHT22;11445;53.816;8.902;2023-07-13T08:21:25;19.70;99.90
22558;DHT22;11445;53.816;8.902;2023-07-13T08:23:52;19.80;99.90
22558;DHT22;11445;53.816;8.902;2023-07-13T08:26:18;19.80;99.90
22558;DHT22;11445;53.816;8.902;2023-07-13T08:28:47;19.80;99.90
22558;DHT22;11445;53.816;8.902;2023-07-13T08:31:13;19.90;99.90
22558;DHT22;11445;53.816;8.902;2023-07-13T08:33:41;20.00;99.90
22558;DHT22;11445;53.816;8.902;2023-07-13T08:36:07;20.10;99.90
22558;DHT22;11445;53.816;8.902;2023-07-13T08:38:34;20.10;99.90
22558;DHT22;11445;53.816;8.902;2023-07-13T08:41:10;20.20;99.90
22558;DHT22;11445;53.816;8.902;2023-07-13T08:43:37;20.20;99.90
22558;DHT22;11445;53.816;8.902;2023-07-13T08:46:09;20.30;99.90
22558;DHT22;11445;53.816;8.902;2023-07-13T08:48:42;20.30;99.90
22558;DHT22;11445;53.816;8.902;2023-07-13T08:51:17;20.40;99.90
22558;DHT22;11445;53.816;8.902;2023-07-13T08:53:50;20.50;99.90
22558;DHT22;11445;53.816;8.902;2023-07-13T08:56:21;20.70;99.90
22558;DHT22;11445;53.816;8.902;2023-07-13T08:58:53;20.80;99.90
22558;DHT22;11445;53.816;8.902;2023-07-13T09:01:27;20.80;99.90
22558;DHT22;11445;53.816;8.902;2023-07-13T09:04:02;21.00;99.90
22558;DHT22;11445;53.816;8.902;2023-07-13T09:06:38;21.00;99.90
22558;DHT22;11445;53.816;8.902;2023-07-13T09:09:14;21.10;99.90
22558;DHT22;11445;53.816;8.902;2023-07-13T09:11:49;21.10;99.90
22558;DHT22;11445;53.816;8.902;2023-07-13T09:14:37;21.10;99.90
22558;DHT22;11445;53.816;8.902;2023-07-13T09:17:23;21.10;99.90
22558;DHT22;11445;53.816;8.902;2023-07-13T09:19:56;21.10;99.90
22558;DHT22;11445;53.816;8.902;2023-07-13T09:22:25;21.10;99.90
22558;DHT22;11445;53.816;8.902;2023-07-13T09:24:58;21.00;99.90
22558;DHT22;11445;53.816;8.902;2023-07-13T09:27:30;21.10;99.90
22558;DHT22;11445;53.816;8.902;2023-07-13T09:30:22;21.00;99.90
22558;DHT22;11445;53.816;8.902;2023-07-13T09:32:53;21.00;99.90
22558;DHT22;11445;53.816;8.902;2023-07-13T09:35:22;21.00;99.90
22558;DHT22;11445;53.816;8.902;2023-07-13T09:37:50;20.90;99.90
22558;DHT22;11445;53.816;8.902;2023-07-13T09:40:24;20.70;99.90
22558;DHT22;11445;53.816;8.902;2023-07-13T09:42:53;20.30;99.90
22558;DHT22;11445;53.816;8.902;2023-07-13T09:45:27;20.00;99.90
22558;DHT22;11445;53.816;8.902;2023-07-13T09:48:04;19.80;99.90
22558;DHT22;11445;53.816;8.902;2023-07-13T09:50:31;19.70;99.90
22558;DHT22;11445;53.816;8.902;2023-07-13T09:53:00;19.70;99.90
22558;DHT22;11445;53.816;8.902;2023-07-13T09:55:30;19.80;99.90
22558;DHT22;11445;53.816;8.902;2023-07-13T09:57:59;19.80;99.90
22558;DHT22;11445;53.816;8.902;2023-07-13T10:00:31;19.90;99.90
22558;DHT22;11445;53.816;8.902;2023-07-13T10:03:02;19.90;99.90
22558;DHT22;11445;53.816;8.902;2023-07-13T10:05:38;20.00;99.90
22558;DHT22;11445;53.816;8.902;2023-07-13T10:08:05;20.00;99.90
22558;DHT22;11445;53.816;8.902;2023-07-13T10:10:33;19.90;99.90
22558;DHT22;11445;53.816;8.902;2023-07-13T10:13:01;19.80;99.90
22558;DHT22;11445;53.816;8.902;2023-07-13T10:15:30;19.70;99.90
22558;DHT22;11445;53.816;8.902;2023-07-13T10:17:57;19.70;99.90
22558;DHT22;11445;53.816;8.902;2023-07-13T10:20:26;19.60;99.90
22558;DHT22;11445;53.816;8.902;2023-07-13T10:22:56;19.50;99.90
22558;DHT22;11445;53.816;8.902;2023-07-13T10:25:27;19.50;99.90
22558;DHT22;11445;53.816;8.902;2023-07-13T10:27:58;19.50;99.90
22558;DHT22;11445;53.816;8.902;2023-07-13T10:30:31;19.60;99.90
22558;DHT22;11445;53.816;8.902;2023-07-13T10:33:01;19.70;99.90
22558;DHT22;11445;53.816;8.902;2023-07-13T10:35:31;19.70;99.90
22558;DHT22;11445;53.816;8.902;2023-07-13T10:38:01;19.60;99.90
22558;DHT22;11445;53.816;8.902;2023-07-13T10:40:37;19.60;99.90
22558;DHT22;11445;53.816;8.902;2023-07-13T10:43:09;19.80;99.90
22558;DHT22;11445;53.816;8.902;2023-07-13T10:45:39;19.90;99.90
22558;DHT22;11445;53.816;8.902;2023-07-13T10:48:09;20.00;99.90
22558;DHT22;11445;53.816;8.902;2023-07-13T10:50:42;20.00;99.90
22558;DHT22;11445;53.816;8.902;2023-07-13T10:53:19;20.10;99.90
22558;DHT22;11445;53.816;8.902;2023-07-13T10:55:56;20.30;99.90
22558;DHT22;11445;53.816;8.902;2023-07-13T10:58:31;20.40;99.90
22558;DHT22;11445;53.816;8.902;2023-07-13T11:01:07;20.50;99.90
22558;DHT22;11445;53.816;8.902;2023-07-13T11:03:36;20.60;99.90
22558;DHT22;11445;53.816;8.902;2023-07-13T11:06:09;20.60;99.90
22558;DHT22;11445;53.816;8.902;2023-07-13T11:08:50;20.40;99.90
22558;DHT22;11445;53.816;8.902;2023-07-13T11:11:34;20.30;99.90
22558;DHT22;11445;53.816;8.902;2023-07-13T11:14:02;20.20;99.90
22558;DHT22;11445;53.816;8.902;2023-07-13T11:16:44;20.00;99.90
22558;DHT22;11445;53.816;8.902;2023-07-13T11:19:40;19.90;99.90
22558;DHT22;11445;53.816;8.902;2023-07-13T11:22:14;19.90;99.90
22558;DHT22;11445;53.816;8.902;2023-07-13T11:24:59;19.90;99.90
22558;DHT22;11445;53.816;8.902;2023-07-13T11:27:38;20.00;99.90
22558;DHT22;11445;53.816;8.902;2023-07-13T11:30:25;19.90;99.90
22558;DHT22;11445;53.816;8.902;2023-07-13T11:33:12;19.80;99.90
22558;DHT22;11445;53.816;8.902;2023-07-13T11:35:57;19.70;99.90
22558;DHT22;11445;53.816;8.902;2023-07-13T11:38:33;19.60;99.90
22558;DHT22;11445;53.816;8.902;2023-07-13T11:41:04;19.50;99.90
22558;DHT22;11445;53.816;8.902;2023-07-13T11:43:31;19.50;99.90
22558;DHT22;11445;53.816;8.902;2023-07-13T11:46:11;19.40;99.90
22558;DHT22;11445;53.816;8.902;2023-07-13T11:48:38;19.30;99.90
22558;DHT22;11445;53.816;8.902;2023-07-13T11:51:06;19.30;99.90
22558;DHT22;11445;53.816;8.902;2023-07-13T11:53:40;19.10;99.90
22558;DHT22;11445;53.816;8.902;2023-07-13T11:56:07;19.00;99.90
22558;DHT22;11445;53.816;8.902;2023-07-13T11:58:34;19.00;99.90
22558;DHT22;11445;53.816;8.902;2023-07-13T12:01:02;18.90;99.90
22558;DHT22;11445;53.816;8.902;2023-07-13T12:03:32;18.90;99.90
22558;DHT22;11445;53.816;8.902;2023-07-13T12:06:01;18.90;99.90
22558;DHT22;11445;53.816;8.902;2023-07-13T12:08:29;18.90;99.90
22558;DHT22;11445;53.816;8.902;2023-07-13T12:11:04;18.90;99.90
22558;DHT22;11445;53.816;8.902;2023-07-13T12:13:36;18.90;99.90
22558;DHT22;11445;53.816;8.902;2023-07-13T12:16:12;18.80;99.90
22558;DHT22;11445;53.816;8.902;2023-07-13T12:18:42;18.70;99.90
22558;DHT22;11445;53.816;8.902;2023-07-13T12:21:13;18.60;99.90
22558;DHT22;11445;53.816;8.902;2023-07-13T12:23:44;18.60;99.90
22558;DHT22;11445;53.816;8.902;2023-07-13T12:26:12;18.50;99.90
22558;DHT22;11445;53.816;8.902;2023-07-13T12:28:45;18.40;99.90
22558;DHT22;11445;53.816;8.902;2023-07-13T12:31:31;18.20;99.90
22558;DHT22;11445;53.816;8.902;2023-07-13T12:34:00;18.10;99.90
22558;DHT22;11445;53.816;8.902;2023-07-13T12:36:31;17.90;99.90
22558;DHT22;11445;53.816;8.902;2023-07-13T12:39:03;17.60;99.90
22558;DHT22;11445;53.816;8.902;2023-07-13T12:41:32;17.40;99.90
22558;DHT22;11445;53.816;8.902;2023-07-13T12:44:00;17.20;99.90
22558;DHT22;11445;53.816;8.902;2023-07-13T12:46:27;17.10;99.90
22558;DHT22;11445;53.816;8.902;2023-07-13T12:48:56;17.20;99.90
22558;DHT22;11445;53.816;8.902;2023-07-13T12:51:26;17.30;99.90
22558;DHT22;11445;53.816;8.902;2023-07-13T12:53:57;17.50;99.90
22558;DHT22;11445;53.816;8.902;2023-07-13T12:56:26;17.80;99.90
22558;DHT22;11445;53.816;8.902;2023-07-13T12:58:57;18.00;99.90
22558;DHT22;11445;53.816;8.902;2023-07-13T13:01:27;18.20;99.90
22558;DHT22;11445;53.816;8.902;2023-07-13T13:03:55;18.40;99.90
22558;DHT22;11445;53.816;8.902;2023-07-13T13:06:24;18.50;99.90
22558;DHT22;11445;53.816;8.902;2023-07-13T13:08:53;18.50;99.90
22558;DHT22;11445;53.816;8.902;2023-07-13T13:11:22;18.60;99.90
22558;DHT22;11445;53.816;8.902;2023-07-13T13:13:50;18.60;99.90
22558;DHT22;11445;53.816;8.902;2023-07-13T13:16:21;18.60;99.90
22558;DHT22;11445;53.816;8.902;2023-07-13T13:18:48;18.70;99.90
22558;DHT22;11445;53.816;8.902;2023-07-13T13:21:16;18.90;99.90
22558;DHT22;11445;53.816;8.902;2023-07-13T13:23:44;19.00;99.90
22558;DHT22;11445;53.816;8.902;2023-07-13T13:26:12;19.10;99.90
22558;DHT22;11445;53.816;8.902;2023-07-13T13:28:40;19.20;99.90
22558;DHT22;11445;53.816;8.902;2023-07-13T13:31:08;19.20;99.90
22558;DHT22;11445;53.816;8.902;2023-07-13T13:33:39;19.30;99.90
22558;DHT22;11445;53.816;8.902;2023-07-13T13:36:15;19.30;99.90
22558;DHT22;11445;53.816;8.902;2023-07-13T13:38:42;19.40;99.90
22558;DHT22;11445;53.816;8.902;2023-07-13T13:41:10;19.70;99.90
22558;DHT22;11445;53.816;8.902;2023-07-13T13:43:39;19.80;99.90
22558;DHT22;11445;53.816;8.902;2023-07-13T13:46:13;19.90;99.90
22558;DHT22;11445;53.816;8.902;2023-07-13T13:48:43;20.00;99.90
22558;DHT22;11445;53.816;8.902;2023-07-13T13:51:15;20.00;99.90
22558;DHT22;11445;53.816;8.902;2023-07-13T13:53:42;20.00;99.90
22558;DHT22;11445;53.816;8.902;2023-07-13T13:56:09;20.00;99.90
22558;DHT22;11445;53.816;8.902;2023-07-13T13:58:36;20.10;99.90
22558;DHT22;11445;53.816;8.902;2023-07-13T14:01:03;20.10;99.90
22558;DHT22;11445;53.816;8.902;2023-07-13T14:03:34;20.00;99.90
22558;DHT22;11445;53.816;8.902;2023-07-13T14:06:02;19.90;99.90
22558;DHT22;11445;53.816;8.902;2023-07-13T14:08:29;19.90;99.90
22558;DHT22;11445;53.816;8.902;2023-07-13T14:10:57;19.90;99.90
22558;DHT22;11445;53.816;8.902;2023-07-13T14:13:27;19.90;99.90
22558;DHT22;11445;53.816;8.902;2023-07-13T14:15:54;20.00;99.90
22558;DHT22;11445;53.816;8.902;2023-07-13T14:18:21;20.10;99.90
22558;DHT22;11445;53.816;8.902;2023-07-13T14:20:49;20.10;99.90
22558;DHT22;11445;53.816;8.902;2023-07-13T14:23:19;20.20;99.90
22558;DHT22;11445;53.816;8.902;2023-07-13T14:25:46;20.30;99.90
22558;DHT22;11445;53.816;8.902;2023-07-13T14:28:21;20.50;99.90
22558;DHT22;11445;53.816;8.902;2023-07-13T14:30:48;20.50;99.90
22558;DHT22;11445;53.816;8.902;2023-07-13T14:33:15;20.60;99.90
22558;DHT22;11445;53.816;8.902;2023-07-13T14:35:42;20.60;99.90
22558;DHT22;11445;53.816;8.902;2023-07-13T14:38:13;20.50;99.90
22558;DHT22;11445;53.816;8.902;2023-07-13T14:40:41;20.40;99.90
22558;DHT22;11445;53.816;8.902;2023-07-13T14:43:10;20.40;99.90
22558;DHT22;11445;53.816;8.902;2023-07-13T14:45:40;20.50;99.90
22558;DHT22;11445;53.816;8.902;2023-07-13T14:48:14;20.60;99.90
22558;DHT22;11445;53.816;8.902;2023-07-13T14:50:42;20.70;99.90
22558;DHT22;11445;53.816;8.902;2023-07-13T14:53:10;20.80;99.90
22558;DHT22;11445;53.816;8.902;2023-07-13T14:55:38;20.80;99.90
22558;DHT22;11445;53.816;8.902;2023-07-13T14:58:06;20.80;99.90
22558;DHT22;11445;53.816;8.902;2023-07-13T15:00:33;20.70;99.90
22558;DHT22;11445;53.816;8.902;2023-07-13T15:03:00;20.70;99.90
22558;DHT22;11445;53.816;8.902;2023-07-13T15:05:29;20.70;99.90
22558;DHT22;11445;53.816;8.902;2023-07-13T15:07:58;20.60;99.90
22558;DHT22;11445;53.816;8.902;2023-07-13T15:10:27;20.60;99.90
22558;DHT22;11445;53.816;8.902;2023-07-13T15:12:58;20.60;99.90
22558;DHT22;11445;53.816;8.902;2023-07-13T15:15:27;20.70;99.90
22558;DHT22;11445;53.816;8.902;2023-07-13T15:17:54;20.70;99.90
22558;DHT22;11445;53.816;8.902;2023-07-13T15:20:25;20.80;99.90
22558;DHT22;11445;53.816;8.902;2023-07-13T15:22:52;20.70;99.90
22558;DHT22;11445;53.816;8.902;2023-07-13T15:25:21;20.50;99.90
22558;DHT22;11445;53.816;8.902;2023-07-13T15:27:48;20.50;99.90
22558;DHT22;11445;53.816;8.902;2023-07-13T15:30:15;20.50;99.90
22558;DHT22;11445;53.816;8.902;2023-07-13T15:32:44;20.40;99.90
22558;DHT22;11445;53.816;8.902;2023-07-13T15:35:16;20.40;99.90
22558;DHT22;11445;53.816;8.902;2023-07-13T15:37:43;20.50;99.90
22558;DHT22;11445;53.816;8.902;2023-07-13T15:40:11;20.70;99.90
22558;DHT22;11445;53.816;8.902;2023-07-13T15:42:39;20.80;99.90